Time;durP1;ratioP1;P1;durP2;ratioP2;P2;SDS_P1;SDS_P2;PMS_P1;PMS_P2;Temp;Humidity;BMP_temperature;BMP_pressure;BME280_temperature;BME280_humidity;BME280_pressure;Samples;Min_cycle;Max_cycle;Signal;HPM_P1;HPM_P2
2022/10/19 00:03:00;;;;;;;2.75;1.30;;;;;;;;;;5269222;23;20196;-66
2022/10/19 00:08:32;;;;;;;5.25;1.50;;;;;;;;;;5538766;23;20048;-65
2022/10/19 00:11:00;;;;;;;6.10;1.85;;;;;;;;;;4902993;29;20070;-64
2022/10/19 00:13:26;;;;;;;7.95;1.27;;;;;;;;;;4913890;29;20075;-65
2022/10/19 00:15:52;;;;;;;8.18;1.60;;;;;;;;;;4931786;29;20099;-68
2022/10/19 00:18:18;;;;;;;5.60;1.40;;;;;;;;;;4934962;29;20082;-69
2022/10/19 00:20:44;;;;;;;8.88;1.35;;;;;;;;;;4918945;29;20055;-69
2022/10/19 00:23:10;;;;;;;6.60;1.33;;;;;;;;;;4912509;29;20060;-69
2022/10/19 00:25:37;;;;;;;6.10;1.50;;;;;;;;;;4935155;29;20123;-69
2022/10/19 00:28:03;;;;;;;8.75;1.83;;;;;;;;;;4919045;29;20111;-69
2022/10/19 00:30:29;;;;;;;5.40;1.40;;;;;;;;;;4936467;29;20115;-70
2022/10/19 00:32:56;;;;;;;5.80;1.40;;;;;;;;;;4912247;29;20095;-70
2022/10/19 00:35:22;;;;;;;7.57;1.73;;;;;;;;;;4918911;29;20055;-70
2022/10/19 00:37:48;;;;;;;5.15;1.50;;;;;;;;;;4918527;29;20043;-70
2022/10/19 00:40:14;;;;;;;2.17;1.42;;;;;;;;;;4879091;29;20131;-70
2022/10/19 00:42:40;;;;;;;2.97;1.40;;;;;;;;;;4934744;29;20051;-70
2022/10/19 00:45:11;;;;;;;6.25;1.60;;;;;;;;;;4918476;29;20406;-71
2022/10/19 00:47:37;;;;;;;4.35;1.35;;;;;;;;;;4897080;29;20040;-71
2022/10/19 00:50:03;;;;;;;6.15;1.50;;;;;;;;;;4911631;29;20044;-71
2022/10/19 00:52:29;;;;;;;12.23;1.40;;;;;;;;;;4932972;29;20079;-71
2022/10/19 00:54:56;;;;;;;4.93;1.38;;;;;;;;;;4919062;29;20051;-71
2022/10/19 00:57:23;;;;;;;7.32;1.40;;;;;;;;;;4912615;29;20055;-71
2022/10/19 00:59:50;;;;;;;9.10;1.73;;;;;;;;;;4913710;29;20119;-71
2022/10/19 01:02:17;;;;;;;5.93;1.67;;;;;;;;;;4931636;29;20048;-71
2022/10/19 01:04:45;;;;;;;8.40;1.30;;;;;;;;;;4934508;29;20538;-70
2022/10/19 01:07:12;;;;;;;4.43;1.30;;;;;;;;;;4905913;29;20098;-70
2022/10/19 01:09:38;;;;;;;7.10;1.50;;;;;;;;;;4917519;29;20063;-70
2022/10/19 01:12:33;;;;;;;4.90;1.27;;;;;;;;;;4884424;29;20044;-70
2022/10/19 01:15:08;;;;;;;3.95;1.23;;;;;;;;;;4887741;29;20048;-71
2022/10/19 01:17:44;;;;;;;6.55;2.13;;;;;;;;;;4888416;29;20056;-70
2022/10/19 01:20:36;;;;;;;4.63;1.33;;;;;;;;;;4912339;29;20489;-70
2022/10/19 01:23:09;;;;;;;12.55;1.35;;;;;;;;;;4875868;29;20099;-70
2022/10/19 01:25:50;;;;;;;9.30;1.40;;;;;;;;;;4900004;29;20107;-70
2022/10/19 01:28:22;;;;;;;4.88;1.35;;;;;;;;;;4901975;29;20044;-70
2022/10/19 01:30:57;;;;;;;9.95;1.40;;;;;;;;;;4897048;29;20053;-70
2022/10/19 01:34:01;;;;;;;10.88;2.55;;;11.40;99.90;;;;;;4897947;29;20087;-70
2022/10/19 01:36:42;;;;;;;4.25;1.27;;;;;;;;;;4865364;29;20049;-70
2022/10/19 01:39:12;;;;;;;13.68;1.05;;;;;;;;;;4880329;29;20085;-70
2022/10/19 01:41:38;;;;;;;11.43;1.48;;;;;;;;;;4898358;29;20055;-70
2022/10/19 01:44:07;;;;;;;10.65;1.75;;;;;;;;;;4896791;29;20126;-70
2022/10/19 01:46:37;;;;;;;11.50;2.42;;;;;;;;;;4903394;29;20389;-70
2022/10/19 01:49:25;;;;;;;9.38;1.67;;;;;;;;;;4894693;29;20041;-70
2022/10/19 01:51:57;;;;;;;8.25;1.25;;;;;;;;;;4915668;29;20507;-71
2022/10/19 01:54:25;;;;;;;10.13;1.80;;;;;;;;;;4874990;29;20131;-71
2022/10/19 01:56:52;;;;;;;15.82;1.65;;;;;;;;;;4901375;29;20045;-71
2022/10/19 01:59:19;;;;;;;6.80;1.23;;;;;;;;;;4885892;29;20453;-71
2022/10/19 02:01:46;;;;;;;4.53;1.15;;;;;;;;;;4915692;29;20127;-71
2022/10/19 02:04:15;;;;;;;6.65;1.20;;;;;;;;;;4915171;29;20047;-71
2022/10/19 02:06:41;;;;;;;8.80;1.75;;;;;;;;;;4915669;29;20041;-71
2022/10/19 02:09:07;;;;;;;7.10;1.30;;;;;;;;;;4905021;29;20041;-70
2022/10/19 02:11:35;;;;;;;7.60;1.52;;;;;;;;;;4867913;29;20057;-70
2022/10/19 02:14:04;;;;;;;7.63;1.50;;;;;;;;;;4866789;29;20045;-70
2022/10/19 02:16:34;;;;;;;5.15;1.17;;;;;;;;;;4865797;29;20037;-71
2022/10/19 02:19:01;;;;;;;6.60;1.38;;;;;;;;;;4882572;29;20437;-71
2022/10/19 02:21:27;;;;;;;8.68;1.65;;;;;;;;;;4868875;29;20045;-71
2022/10/19 02:23:54;;;;;;;4.82;1.42;;;;;;;;;;4868265;29;20044;-71
2022/10/19 02:26:20;;;;;;;11.35;1.20;;;;;;;;;;4884660;29;20052;-71
2022/10/19 02:28:47;;;;;;;10.23;1.77;;;;;;;;;;4882020;29;20115;-70
2022/10/19 02:31:13;;;;;;;11.02;1.95;;;;;;;;;;4877062;29;20076;-70
2022/10/19 02:33:39;;;;;;;6.28;1.20;;;;;;;;;;4874306;29;20077;-70
2022/10/19 02:36:05;;;;;;;20.90;1.80;;;;;;;;;;4865114;29;20113;-70
2022/10/19 02:38:31;;;;;;;6.97;1.27;;;;;;;;;;4872540;29;20112;-70
2022/10/19 02:40:57;;;;;;;10.32;1.33;;;;;;;;;;4883701;29;20084;-70
2022/10/19 02:43:25;;;;;;;10.23;1.40;;;;;;;;;;4878063;29;20052;-70
2022/10/19 02:46:02;;;;;;;13.73;1.70;;;;;;;;;;4882124;29;20051;-70
2022/10/19 02:48:30;;;;;;;7.30;1.52;;;;;;;;;;4877203;29;20045;-70
2022/10/19 02:50:56;;;;;;;7.03;2.13;;;;;;;;;;4875357;29;20055;-70
2022/10/19 02:53:22;;;;;;;11.55;1.98;;;;;;;;;;4877799;29;20450;-70
2022/10/19 02:55:49;;;;;;;8.05;1.50;;;;;;;;;;4896065;29;20037;-70
2022/10/19 02:58:15;;;;;;;5.63;1.20;;;;;;;;;;4868181;29;20037;-70
2022/10/19 03:00:41;;;;;;;9.40;1.60;;;;;;;;;;4875219;29;20045;-70
2022/10/19 03:03:07;;;;;;;14.98;2.25;;;;;;;;;;4866047;29;20120;-70
2022/10/19 03:05:34;;;;;;;7.75;1.52;;;;;;;;;;4868137;29;20385;-70
2022/10/19 03:08:00;;;;;;;7.60;1.60;;;;;;;;;;4883832;29;20048;-70
2022/10/19 03:10:26;;;;;;;6.43;1.40;;;;;;;;;;4917263;29;20051;-70
2022/10/19 03:12:52;;;;;;;9.75;1.40;;;;;;;;;;4901119;29;20036;-70
2022/10/19 03:15:18;;;;;;;9.43;1.45;;;;;;;;;;4884354;29;20471;-69
2022/10/19 03:17:44;;;;;;;7.70;1.27;;;;;;;;;;4916602;29;20076;-70
2022/10/19 03:20:11;;;;;;;10.68;1.63;;;;;;;;;;4890616;29;20465;-70
2022/10/19 03:22:37;;;;;;;5.13;1.77;;;;;;;;;;4901377;29;20115;-70
2022/10/19 03:25:03;;;;;;;7.55;1.75;;;;;;;;;;4887412;29;20131;-70
2022/10/19 03:27:29;;;;;;;9.25;1.65;;;;;;;;;;4914181;29;20552;-70
2022/10/19 03:29:55;;;;;;;8.63;1.88;;;;;;;;;;4877038;29;20155;-70
2022/10/19 03:32:21;;;;;;;8.85;1.42;;;;;;;;;;4913961;29;20052;-70
2022/10/19 03:34:48;;;;;;;11.73;1.50;;;;;;;;;;4916765;29;20052;-70
2022/10/19 03:37:14;;;;;;;8.75;1.67;;;;;;;;;;4893330;29;20117;-70
2022/10/19 03:39:40;;;;;;;9.57;1.40;;;;;;;;;;4875052;29;20044;-70
2022/10/19 03:42:06;;;;;;;5.32;1.40;;;;;;;;;;4882559;29;20107;-70
2022/10/19 03:44:32;;;;;;;10.95;1.40;;;;;;;;;;4886856;29;20080;-70
2022/10/19 03:46:58;;;;;;;9.20;1.75;;;;;;;;;;4916568;29;20048;-70
2022/10/19 03:49:24;;;;;;;9.80;1.25;;;;;;;;;;4898689;29;20047;-70
2022/10/19 03:51:50;;;;;;;9.55;1.88;;;;;;;;;;4900662;29;20076;-70
2022/10/19 03:54:17;;;;;;;9.18;1.65;;;;;;;;;;4913361;29;20043;-70
2022/10/19 03:56:43;;;;;;;9.70;1.60;;;;;;;;;;4876205;29;20127;-70
2022/10/19 03:59:11;;;;;;;9.70;2.47;;;;;;;;;;4900332;29;20127;-70
2022/10/19 04:01:39;;;;;;;8.30;1.25;;;;;;;;;;4900889;29;20040;-70
2022/10/19 04:04:25;;;;;;;7.63;1.45;;;;;;;;;;4897393;29;20043;-70
2022/10/19 04:06:52;;;;;;;7.65;1.40;;;;;;;;;;4887579;29;20143;-70
2022/10/19 04:09:33;;;;;;;13.05;1.58;;;;;;;;;;4895152;29;20163;-70
2022/10/19 04:12:12;;;;;;;7.97;1.50;;;;;;;;;;4899172;29;20519;-69
2022/10/19 04:14:41;;;;;;;8.32;1.33;;;;;;;;;;4914173;29;20044;-70
2022/10/19 04:17:16;;;;;;;12.68;1.95;;;;;;;;;;4883850;29;20043;-71
2022/10/19 04:20:12;;;;;;;16.13;1.80;;;;;;;;;;4899022;29;20040;-71
2022/10/19 04:22:44;;;;;;;11.60;1.90;;;;;;;;;;4897230;29;20048;-71
2022/10/19 04:25:19;;;;;;;6.05;1.40;;;;;;;;;;4900375;29;20052;-71
2022/10/19 04:31:16;;;;;;;10.77;1.92;;;;;;;;;;4862173;29;20049;-71
2022/10/19 04:34:05;;;;;;;5.97;1.52;;;;;;;;;;4861937;29;20144;-71
2022/10/19 04:36:37;;;;;;;9.43;1.60;;;;;;;;;;4860954;29;20386;-71
2022/10/19 04:39:04;;;;;;;10.95;2.03;;;;;;;;;;4846741;29;20049;-70
2022/10/19 04:41:30;;;;;;;15.95;2.70;;;;;;;;;;4865053;29;20051;-71
2022/10/19 04:44:01;;;;;;;9.00;1.63;;;;;;;;;;4899603;29;20044;-71
2022/10/19 04:46:27;;;;;;;8.18;1.30;;;;;;;;;;4909603;29;20071;-71
2022/10/19 04:48:54;;;;;;;10.40;1.55;;;;;;;;;;4908893;29;20050;-70
2022/10/19 04:51:20;;;;;;;12.05;1.75;;;;;;;;;;4888705;29;20073;-71
2022/10/19 04:53:47;;;;;;;10.27;1.80;;;;;;;;;;4910189;29;20045;-71
2022/10/19 04:56:15;;;;;;;10.48;1.90;;;;;;;;;;4908571;29;20565;-71
2022/10/19 04:58:41;;;;;;;10.05;1.52;;;;;;;;;;4894332;29;20079;-70
2022/10/19 05:01:12;;;;;;;13.48;3.17;;;;;;;;;;4906259;29;20041;-71
2022/10/19 05:03:38;;;;;;;10.23;1.50;;;;;;;;;;4892934;29;20051;-70
2022/10/19 05:06:05;;;;;;;11.65;1.70;;;;;;;;;;4888218;29;20492;-71
2022/10/19 05:08:31;;;;;;;14.85;1.88;;;;;;;;;;4907793;29;20060;-71
2022/10/19 05:11:05;;;;;;;8.90;1.70;;;;;;;;;;4908627;29;20501;-71
2022/10/19 05:13:32;;;;;;;9.10;2.10;;;;;;;;;;4909030;29;20047;-71
2022/10/19 05:15:59;;;;;;;6.55;1.45;;;;;;;;;;4869244;29;20115;-71
2022/10/19 05:18:25;;;;;;;7.57;1.70;;;;;;;;;;4907665;29;20119;-70
2022/10/19 05:20:51;;;;;;;9.35;1.60;;;;;;;;;;4909802;29;20362;-71
2022/10/19 05:23:17;;;;;;;10.07;1.60;;;;;;;;;;4911416;29;20067;-70
2022/10/19 05:25:43;;;;;;;8.45;1.88;;;;;;;;;;4883715;29;20541;-70
2022/10/19 05:28:09;;;;;;;5.95;1.33;;;;;;;;;;4886100;29;20039;-70
2022/10/19 05:30:37;;;;;;;11.90;1.63;;;;;;;;;;4886589;29;20067;-70
2022/10/19 05:33:03;;;;;;;9.05;1.50;;;;;;;;;;4865412;29;20070;-71
2022/10/19 05:35:29;;;;;;;10.35;1.88;;;;;;;;;;4889829;29;20040;-71
2022/10/19 05:37:55;;;;;;;9.85;1.75;;;;;;;;;;4886918;29;20487;-71
2022/10/19 05:40:21;;;;;;;8.40;1.60;;;;;;;;;;4883265;29;20048;-71
2022/10/19 05:42:48;;;;;;;11.82;2.20;;;;;;;;;;4906935;29;20048;-71
2022/10/19 05:45:14;;;;;;;9.35;1.60;;;;;;;;;;4909545;29;20460;-71
2022/10/19 05:47:40;;;;;;;12.38;2.13;;;;;;;;;;4865562;29;20480;-71
2022/10/19 05:50:06;;;;;;;15.25;1.70;;;;;;;;;;4907422;29;20156;-71
2022/10/19 05:52:32;;;;;;;8.18;1.40;;;;;;;;;;4907409;29;20056;-71
2022/10/19 05:54:58;;;;;;;15.23;1.50;;;;;;;;;;4906860;29;20135;-71
2022/10/19 05:57:24;;;;;;;7.63;1.63;;;;;;;;;;4890929;29;20036;-71
2022/10/19 05:59:50;;;;;;;12.07;1.60;;;;;;;;;;4907253;29;20151;-71
2022/10/19 06:02:16;;;;;;;11.48;2.35;;;;;;;;;;4868410;29;20040;-71
2022/10/19 06:04:42;;;;;;;10.30;1.38;;;;;;;;;;4910838;29;20117;-71
2022/10/19 06:07:09;;;;;;;9.80;2.45;;;;;;;;;;4889713;29;20051;-71
2022/10/19 06:09:36;;;;;;;7.28;1.27;;;;;;;;;;4896127;29;20062;-71
2022/10/19 06:12:03;;;;;;;16.67;1.70;;;;;;;;;;4891070;29;20044;-71
2022/10/19 06:14:29;;;;;;;10.27;1.85;;;;;;;;;;4913197;29;20076;-71
2022/10/19 06:16:55;;;;;;;5.78;1.48;;;;;;;;;;4893890;29;20417;-71
2022/10/19 06:19:21;;;;;;;11.20;1.65;;;;;;;;;;4894146;29;20037;-71
2022/10/19 06:21:47;;;;;;;11.80;1.73;;;;;;;;;;4897924;29;20096;-71
2022/10/19 06:24:13;;;;;;;7.97;1.35;;;;;;;;;;4899433;29;20028;-71
2022/10/19 06:26:39;;;;;;;8.20;1.60;;;;;;;;;;4880373;29;20044;-71
2022/10/19 06:29:05;;;;;;;9.52;1.55;;;;;;;;;;4897914;29;20044;-71
2022/10/19 06:31:33;;;;;;;7.40;1.55;;;;;;;;;;4915045;29;20092;-71
2022/10/19 06:33:59;;;;;;;12.40;1.80;;;;;;;;;;4914214;29;20049;-71
2022/10/19 06:36:28;;;;;;;7.22;1.67;;;;;;;;;;4915059;29;20041;-71
2022/10/19 06:38:55;;;;;;;8.52;1.73;;;;;;;;;;4913934;29;20039;-71
2022/10/19 06:41:21;;;;;;;13.23;2.10;;;;;;;;;;4873733;29;20040;-71
2022/10/19 06:43:54;;;;;;;14.65;2.33;;;;;;;;;;4887431;29;20045;-71
2022/10/19 06:46:22;;;;;;;4.13;1.30;;;;;;;;;;4899140;29;20040;-72
2022/10/19 06:48:58;;;;;;;5.72;1.65;;;;;;;;;;4899265;29;20046;-73
2022/10/19 06:51:24;;;;;;;13.30;1.77;;;;;;;;;;4900995;29;20044;-75
2022/10/19 06:53:51;;;;;;;12.77;1.90;;;;;;;;;;4900026;29;20041;-72
2022/10/19 06:56:17;;;;;;;13.48;1.83;;;;;;;;;;4897117;29;20045;-72
2022/10/19 06:58:44;;;;;;;15.95;1.65;;;;;;;;;;4897985;29;20044;-72
2022/10/19 07:01:11;;;;;;;9.60;1.67;;;;;;;;;;4899635;29;20058;-72
2022/10/19 07:03:37;;;;;;;13.63;1.67;;;;;;;;;;4886981;29;20053;-72
2022/10/19 07:06:06;;;;;;;10.25;1.65;;;;;;;;;;4914991;29;20049;-72
2022/10/19 07:08:32;;;;;;;7.53;1.50;;;;;;;;;;4867468;29;20068;-72
2022/10/19 07:10:59;;;;;;;8.35;1.55;;;;;;;;;;4906900;29;20127;-72
2022/10/19 07:13:27;;;;;;;10.70;1.67;;;;;;;;;;4913664;29;20598;-72
2022/10/19 07:15:57;;;;;;;11.05;1.73;;;;;;;;;;4914387;29;20041;-72
2022/10/19 07:18:23;;;;;;;11.27;1.65;;;;;;;;;;4917181;29;20055;-72
2022/10/19 07:20:59;;;;;;;7.72;1.40;;;;;;;;;;4896336;29;20405;-71
2022/10/19 07:23:26;;;;;;;12.93;1.98;;;;;;;;;;4917413;29;21029;-71
2022/10/19 07:25:54;;;;;;;13.95;2.88;;;;;;;;;;4901784;29;20050;-72
2022/10/19 07:28:21;;;;;;;8.85;1.70;;;;;;;;;;4899055;29;20048;-71
2022/10/19 07:30:47;;;;;;;8.88;1.83;;;;;;;;;;4900832;29;20040;-71
2022/10/19 07:33:13;;;;;;;15.70;1.70;;;;;;;;;;4892840;29;20528;-71
2022/10/19 07:35:39;;;;;;;8.02;1.33;;;;;;;;;;4913972;29;20037;-71
2022/10/19 07:38:05;;;;;;;9.90;1.75;;;;;;;;;;4916542;29;20044;-71
2022/10/19 07:40:31;;;;;;;10.10;1.40;;;;;;;;;;4883015;29;20047;-71
2022/10/19 07:42:57;;;;;;;11.38;1.58;;;;;;;;;;4916872;29;20047;-72
2022/10/19 07:45:23;;;;;;;12.52;2.63;;;;;;;;;;4885834;29;20485;-72
2022/10/19 07:47:49;;;;;;;11.52;1.88;;;;;;;;;;4883023;29;20051;-72
2022/10/19 07:50:15;;;;;;;9.32;2.25;;;;;;;;;;4913823;29;20080;-75
2022/10/19 07:52:42;;;;;;;10.70;2.65;;;;;;;;;;4914383;29;20442;-71
2022/10/19 07:55:08;;;;;;;15.27;1.83;;;;;;;;;;4900781;29;20088;-71
2022/10/19 07:57:34;;;;;;;14.40;2.15;;;;;;;;;;4899578;29;20040;-72
2022/10/19 08:00:00;;;;;;;13.68;1.90;;;;;;;;;;4915929;29;20044;-72
2022/10/19 08:02:26;;;;;;;7.25;1.75;;;;;;;;;;4890390;29;20176;-71
2022/10/19 08:04:52;;;;;;;7.10;2.38;;;;;;;;;;4915923;29;20503;-71
2022/10/19 08:07:18;;;;;;;5.78;1.67;;;;;;;;;;4901197;29;20051;-71
2022/10/19 08:09:44;;;;;;;12.05;2.35;;;;;;;;;;4899922;29;20087;-71
2022/10/19 08:12:10;;;;;;;9.43;1.63;;;;;;;;;;4916460;29;20074;-71
2022/10/19 08:14:36;;;;;;;12.32;1.90;;;;;;;;;;4892672;29;20032;-72
2022/10/19 08:17:02;;;;;;;9.93;2.00;;;;;;;;;;4886099;29;20048;-71
2022/10/19 08:19:28;;;;;;;11.93;1.52;;;;;;;;;;4897595;29;20079;-72
2022/10/19 08:21:54;;;;;;;13.82;1.95;;;;;;;;;;4899535;29;20036;-71
2022/10/19 08:24:21;;;;;;;11.93;1.50;;;;;;;;;;4900569;29;20039;-72
2022/10/19 08:26:49;;;;;;;6.22;1.23;;;;;;;;;;4885689;29;20044;-72
2022/10/19 08:29:17;;;;;;;12.70;1.80;;;;;;;;;;4900646;29;20048;-72
2022/10/19 08:31:44;;;;;;;8.32;1.60;;;;;;;;;;4900593;29;20048;-72
2022/10/19 08:34:10;;;;;;;12.43;2.85;;;;;;;;;;4883106;29;20044;-72
2022/10/19 08:36:36;;;;;;;8.20;1.30;;;;;;;;;;4898774;29;20044;-72
2022/10/19 08:39:04;;;;;;;8.73;1.52;;;;;;;;;;4896736;29;20496;-72
2022/10/19 08:41:53;;;;;;;6.40;1.42;;;;;;;;;;4889576;29;20120;-72
2022/10/19 08:44:38;;;;;;;10.32;1.83;;;;;;;;;;4876088;29;20052;-72
2022/10/19 08:47:17;;;;;;;6.65;1.63;;;;;;;;;;4902862;29;20099;-72
2022/10/19 08:49:44;;;;;;;8.80;1.60;;;;;;;;;;4897442;29;20051;-72
2022/10/19 08:52:17;;;;;;;11.82;1.95;;;;;;;;;;4881480;29;20048;-72
2022/10/19 08:54:48;;;;;;;4.38;1.60;;;;;;;;;;4883181;29;20446;-71
2022/10/19 08:57:33;;;;;;;10.25;2.50;;;;;;;;;;4893774;29;20044;-71
2022/10/19 09:00:07;;;;;;;10.63;1.92;;;;;;;;;;4881483;29;20452;-71
2022/10/19 09:03:05;;;;;;;8.45;1.50;;;;;;;;;;4874539;29;20051;-71
2022/10/19 09:05:34;;;;;;;9.95;1.75;;;;;;;;;;4847724;29;20055;-73
2022/10/19 09:08:00;;;;;;;9.73;2.60;;;;;;;;;;4897134;29;20047;-73
2022/10/19 09:10:29;;;;;;;20.23;2.15;;;;;;;;;;4883908;29;20055;-73
2022/10/19 09:13:00;;;;;;;9.38;1.40;;;;;;;;;;4888655;29;20056;-72
2022/10/19 09:15:32;;;;;;;11.38;1.65;;;;;;;;;;4915763;29;20047;-72
2022/10/19 09:17:58;;;;;;;10.93;1.37;;;;;;;;;;4882884;29;20611;-72
2022/10/19 09:20:44;;;;;;;10.98;2.22;;;;;;;;;;4894847;29;20295;-73
2022/10/19 09:23:17;;;;;;;8.63;1.20;;;;;;;;;;4886241;29;20050;-73
2022/10/19 09:25:43;;;;;;;15.38;1.73;;;;;;;;;;4894737;29;20123;-73
2022/10/19 09:28:16;;;;;;;8.77;1.10;;;;;;;;;;4912340;29;20452;-73
2022/10/19 09:30:42;;;;;;;7.88;1.30;;;;;;;;;;4915326;29;20117;-72
2022/10/19 09:33:14;;;;;;;7.53;1.42;;;;;;;;;;4868286;29;20044;-72
2022/10/19 09:35:42;;;;;;;9.73;1.48;;;;;;;;;;4895500;29;20546;-72
2022/10/19 09:38:11;;;;;;;7.35;1.92;;;;;;;;;;4912795;29;20096;-72
2022/10/19 09:40:37;;;;;;;10.23;1.65;;;;;;;;;;4897730;29;20041;-72
2022/10/19 09:43:20;;;;;;;9.52;1.40;;;;;;;;;;4883388;29;20500;-73
2022/10/19 09:46:03;;;;;;;6.45;1.67;;;;;;;;;;4896611;29;20048;-72
2022/10/19 09:48:32;;;;;;;9.95;1.65;;;;;;;;;;4896556;29;20123;-72
2022/10/19 09:51:00;;;;;;;9.48;1.90;;;;;;;;;;4898512;29;20050;-72
2022/10/19 09:53:26;;;;;;;11.88;2.70;;;;;;;;;;4900759;29;20051;-72
2022/10/19 09:55:55;;;;;;;12.27;2.25;;;;;;;;;;4900736;29;20036;-72
2022/10/19 09:58:24;;;;;;;9.73;2.15;;;;;;;;;;4902896;29;20055;-73
2022/10/19 10:00:53;;;;;;;8.63;1.70;;;;;;;;;;4899688;29;20040;-70
2022/10/19 10:03:39;;;;;;;11.80;1.83;;;;;;;;;;4883490;29;20397;-78
2022/10/19 10:06:07;;;;;;;9.18;1.67;;;;;;;;;;4902650;29;20472;-77
2022/10/19 10:08:35;;;;;;;6.03;1.60;;;;;;;;;;4922422;29;20399;-74
2022/10/19 10:11:41;;;;;;;9.70;1.45;;;;;;;;;;4917944;29;20048;-71
2022/10/19 10:32:09;;;;;;;8.57;1.65;;;;;;;;;;4787482;29;20083;-73
2022/10/19 10:34:44;;;;;;;9.82;1.52;;;;;;;;;;4808498;29;20515;-73
2022/10/19 10:37:39;;;;;;;6.30;1.73;;;;;;;;;;4806287;29;20093;-71
2022/10/19 10:40:07;;;;;;;9.32;1.70;;;;;;;;;;4810845;29;20105;-71
2022/10/19 10:42:41;;;;;;;7.25;1.65;;;;;;;;;;4834502;29;20148;-72
2022/10/19 10:45:16;;;;;;;15.50;2.10;;;;;;;;;;4881660;29;20060;-72
2022/10/19 10:47:47;;;;;;;8.48;1.90;;;;;;;;;;4895946;29;20047;-71
2022/10/19 10:50:18;;;;;;;10.20;2.35;;;;;;;;;;4871869;29;20075;-71
2022/10/19 10:52:56;;;;;;;10.13;1.70;;;;;;;;;;4896864;29;20040;-71
2022/10/19 10:55:22;;;;;;;8.77;1.65;;;;;;;;;;4886882;29;20143;-71
2022/10/19 10:57:51;;;;;;;9.75;1.88;;;;;;;;;;4870785;29;20036;-72
2022/10/19 11:00:23;;;;;;;14.15;2.05;;;;;;;;;;4886494;29;20040;-72
2022/10/19 11:03:14;;;;;;;8.98;1.40;;;;;;;;;;4900549;29;20108;-72
2022/10/19 11:05:43;;;;;;;12.82;1.60;;;;;;;;;;4918591;29;20048;-72
2022/10/19 11:08:12;;;;;;;8.27;2.00;;;;;;;;;;4899029;29;20083;-72
2022/10/19 11:10:44;;;;;;;16.40;2.00;;;;;;;;;;4898878;29;20130;-72
2022/10/19 11:13:21;;;;;;;5.10;1.20;;;;;;;;;;4886578;29;20060;-72
2022/10/19 11:15:55;;;;;;;8.93;2.03;;;;;;;;;;4913997;29;20045;-71
2022/10/19 11:18:27;;;;;;;8.55;1.33;;;;;;;;;;4866628;29;20092;-78
2022/10/19 11:21:13;;;;;;;16.23;1.75;;;;;;;;;;4866869;29;20037;-72
2022/10/19 11:24:01;;;;;;;8.70;1.27;;;;;;;;;;4867533;29;20477;-72
2022/10/19 11:26:36;;;;;;;7.05;1.30;;;;;;;;;;4915766;29;20406;-71
2022/10/19 11:29:05;;;;;;;7.45;1.52;;;;;;;;;;4884312;29;20047;-72
2022/10/19 11:31:31;;;;;;;6.53;1.20;;;;;;;;;;4915430;29;20527;-71
2022/10/19 11:34:04;;;;;;;4.55;1.50;;;;;;;;;;4916627;29;20052;-71
2022/10/19 11:36:40;;;;;;;8.27;1.70;;;;;;;;;;4901116;29;20040;-71
2022/10/19 11:39:17;;;;;;;9.27;1.92;;;;;;;;;;4884180;29;20045;-71
2022/10/19 11:42:02;;;;;;;9.57;1.42;;;;;;;;;;4867446;29;20048;-72
2022/10/19 11:44:50;;;;;;;9.48;1.35;;;13.90;99.90;;;;;;4916119;29;20048;-71
2022/10/19 11:47:29;;;;;;;11.57;1.55;;;;;;;;;;4900948;29;20059;-71
2022/10/19 11:50:14;;;;;;;6.65;1.40;;;;;;;;;;4901147;29;20123;-72
2022/10/19 11:52:47;;;;;;;6.30;1.38;;;;;;;;;;4903256;29;20036;-72
2022/10/19 11:55:13;;;;;;;5.00;1.50;;;;;;;;;;4892953;29;20037;-72
2022/10/19 11:57:42;;;;;;;4.55;1.52;;;;;;;;;;4911525;29;20187;-72
2022/10/19 12:00:10;;;;;;;10.77;1.73;;;;;;;;;;4912467;29;20044;-72
2022/10/19 12:02:46;;;;;;;7.82;1.42;;;;;;;;;;4914719;29;20040;-72
2022/10/19 12:05:51;;;;;;;13.82;1.65;;;13.80;99.90;;;;;;4913885;29;20188;-71
2022/10/19 12:08:36;;;;;;;8.95;1.50;;;;;;;;;;4879240;29;20084;-72
2022/10/19 12:11:11;;;;;;;11.02;1.50;;;;;;;;;;4904178;29;20537;-72
2022/10/19 12:13:40;;;;;;;7.65;1.10;;;;;;;;;;4916476;29;20055;-72
2022/10/19 12:16:08;;;;;;;10.45;1.42;;;;;;;;;;4899940;29;20565;-72
2022/10/19 12:18:36;;;;;;;10.90;1.73;;;;;;;;;;4891986;29;20041;-72
2022/10/19 12:21:04;;;;;;;6.55;1.75;;;;;;;;;;4898689;29;20085;-72
2022/10/19 12:23:32;;;;;;;5.50;1.30;;;;;;;;;;4916261;29;20043;-73
2022/10/19 12:26:00;;;;;;;8.15;1.30;;;;;;;;;;4900913;29;20397;-73
2022/10/19 12:28:28;;;;;;;8.07;1.42;;;;;;;;;;4898637;29;20393;-72
2022/10/19 12:30:56;;;;;;;10.13;1.58;;;;;;;;;;4900652;29;20441;-72
2022/10/19 12:33:31;;;;;;;6.25;1.25;;;;;;;;;;4912382;29;20370;-72
2022/10/19 12:36:00;;;;;;;7.88;1.27;;;;;;;;;;4913491;29;20453;-73
2022/10/19 12:38:36;;;;;;;6.18;1.15;;;;;;;;;;4912795;29;20036;-73
2022/10/19 12:41:21;;;;;;;6.90;1.70;;;;;;;;;;4912657;29;20408;-72
2022/10/19 12:44:01;;;;;;;11.35;1.67;;;;;;;;;;4912955;29;20048;-73
2022/10/19 12:46:44;;;;;;;5.88;1.27;;;;;;;;;;4913015;29;20076;-73
2022/10/19 12:49:23;;;;;;;9.77;1.40;;;;;;;;;;4915941;29;20124;-73
2022/10/19 12:51:49;;;;;;;9.93;1.73;;;;;;;;;;4901090;29;20458;-72
2022/10/19 12:54:15;;;;;;;8.00;1.90;;;;;;;;;;4875750;29;20139;-72
2022/10/19 12:56:49;;;;;;;6.03;1.33;;;;;;;;;;4884707;29;20044;-72
2022/10/19 12:59:25;;;;;;;9.95;1.85;;;;;;;;;;4890111;29;20048;-72
2022/10/19 13:01:52;;;;;;;5.22;1.63;;;16.00;99.90;;;;;;4866179;29;20100;-72
2022/10/19 13:04:23;;;;;;;9.38;1.80;;;;;;;;;;4915589;29;20135;-72
2022/10/19 13:06:51;;;;;;;7.13;1.33;;;;;;;;;;4882493;29;20083;-72
2022/10/19 13:09:31;;;;;;;5.43;1.30;;;16.40;99.90;;;;;;4912119;29;20064;-72
2022/10/19 13:12:13;;;;;;;7.57;1.38;;;;;;;;;;4866006;29;20131;-72
2022/10/19 13:14:51;;;;;;;10.97;2.20;;;;;;;;;;4884490;29;20123;-72
2022/10/19 13:17:36;;;;;;;5.75;1.50;;;;;;;;;;4899937;29;20072;-73
2022/10/19 13:20:14;;;;;;;8.00;1.75;;;;;;;;;;4894378;29;20044;-72
2022/10/19 13:22:41;;;;;;;8.45;1.10;;;;;;;;;;4881270;29;20051;-72
2022/10/19 13:25:20;;;;;;;9.35;1.67;;;;;;;;;;4915462;29;20048;-72
2022/10/19 13:27:50;;;;;;;4.47;1.45;;;;;;;;;;4901804;29;20385;-72
2022/10/19 13:30:37;;;;;;;9.35;1.60;;;15.70;99.90;;;;;;4886012;29;20064;-72
2022/10/19 13:33:28;;;;;;;7.72;1.48;;;;;;;;;;4916229;29;20056;-72
2022/10/19 13:36:01;;;;;;;7.32;1.80;;;;;;;;;;4903255;29;20488;-72
2022/10/19 13:38:27;;;;;;;7.15;1.52;;;;;;;;;;4898748;29;20036;-72
2022/10/19 13:40:56;;;;;;;8.48;1.75;;;;;;;;;;4885836;29;20048;-72
2022/10/19 13:43:27;;;;;;;3.92;1.40;;;;;;;;;;4903560;29;20040;-72
2022/10/19 13:46:22;;;;;;;7.05;1.50;;;15.70;99.90;;;;;;4892948;29;20127;-72
2022/10/19 13:49:02;;;;;;;9.05;1.45;;;;;;;;;;4877257;29;20409;-72
2022/10/19 13:51:28;;;;;;;8.55;1.90;;;;;;;;;;4869394;29;20075;-72
2022/10/19 13:53:57;;;;;;;4.32;1.38;;;;;;;;;;4916557;29;20041;-72
2022/10/19 13:56:45;;;;;;;4.90;1.13;;;;;;;;;;4911530;29;20067;-72
2022/10/19 13:59:11;;;;;;;7.45;1.88;;;;;;;;;;4887526;29;20126;-72
2022/10/19 14:01:56;;;;;;;8.32;1.48;;;;;;;;;;4918735;29;20035;-71
2022/10/19 14:04:33;;;;;;;8.77;1.50;;;;;;;;;;4903092;29;20500;-72
2022/10/19 14:07:10;;;;;;;5.00;1.88;;;;;;;;;;4909935;29;20040;-72
2022/10/19 14:09:43;;;;;;;9.30;1.67;;;;;;;;;;4918335;29;20056;-72
2022/10/19 14:12:29;;;;;;;8.52;1.60;;;;;;;;;;4901529;29;20141;-72
2022/10/19 14:14:56;;;;;;;11.40;1.73;;;;;;;;;;4903037;29;20048;-71
2022/10/19 14:17:28;;;;;;;12.95;1.88;;;;;;;;;;4902407;29;20424;-72
2022/10/19 14:19:56;;;;;;;6.93;1.75;;;;;;;;;;4897025;29;20036;-72
2022/10/19 14:22:28;;;;;;;13.02;1.98;;;;;;;;;;4892142;29;20484;-72
2022/10/19 14:24:54;;;;;;;;;;;;;;;;;;4897126;29;20059;-72
2022/10/19 14:27:24;;;;;;;5.88;1.80;;;;;;;;;;4902552;29;19919;-73
2022/10/19 14:29:51;;;;;;;6.85;1.90;;;;;;;;;;4887387;29;20048;-72
2022/10/19 14:32:18;;;;;;;13.27;2.55;;;;;;;;;;4918009;29;20048;-71
2022/10/19 14:34:45;;;;;;;4.82;1.52;;;;;;;;;;4902649;29;20100;-72
2022/10/19 14:37:20;;;;;;;10.18;2.38;;;;;;;;;;4912023;29;20036;-71
2022/10/19 14:40:06;;;;;;;6.30;1.88;;;15.60;99.90;;;;;;4917025;29;20040;-71
2022/10/19 14:42:37;;;;;;;8.95;1.80;;;;;;;;;;4910805;29;20122;-77
2022/10/19 14:45:03;;;;;;;6.35;1.67;;;;;;;;;;4902714;29;20052;-72
2022/10/19 14:47:29;;;;;;;6.72;1.70;;;;;;;;;;4909154;29;20052;-72
2022/10/19 14:49:56;;;;;;;7.20;1.80;;;;;;;;;;4914745;29;20135;-71
2022/10/19 14:52:29;;;;;;;7.55;1.90;;;;;;;;;;4918165;29;20499;-72
2022/10/19 14:54:58;;;;;;;11.88;2.28;;;;;;;;;;4898567;29;20072;-72
2022/10/19 14:57:34;;;;;;;13.35;1.80;;;;;;;;;;4902043;29;20044;-72
2022/10/19 15:00:05;;;;;;;5.85;1.50;;;;;;;;;;4886721;29;20044;-72
2022/10/19 15:02:39;;;;;;;4.50;1.33;;;;;;;;;;4902519;29;20079;-71
2022/10/19 15:05:06;;;;;;;7.53;1.50;;;;;;;;;;4905199;29;20059;-71
2022/10/19 15:07:37;;;;;;;4.43;1.30;;;;;;;;;;4903819;29;20055;-71
2022/10/19 15:10:05;;;;;;;8.30;1.88;;;;;;;;;;4904592;29;20060;-71
2022/10/19 15:12:35;;;;;;;8.82;1.65;;;;;;;;;;4919485;29;20056;-71
2022/10/19 15:15:06;;;;;;;6.63;1.70;;;;;;;;;;4886561;29;20043;-72
2022/10/19 15:17:34;;;;;;;6.22;1.55;;;;;;;;;;4918893;29;20043;-71
2022/10/19 15:20:01;;;;;;;7.47;1.60;;;;;;;;;;4902040;29;20048;-71
2022/10/19 15:22:30;;;;;;;8.73;1.40;;;;;;;;;;4885737;29;20509;-71